SBI728 UWGG-UUDD
Flight info
| Callsign | SBI728 |
|---|---|
| Flight time | 0h 59m |
| Altitude | 30000 |
| Route | LARNO2U LARNO P985 OSPOM T787 URAGO URAGO3M |
| Aircraft | A320/M-SDE3FGHIRWY/LB1 |
Departure
| Time | 2026-04-24 11:18 |
|---|---|
| Airport | Nizhny Novgorod / Strigino International Airport (UWGG) |
Arrival
| Time | 2026-04-24 12:17 |
|---|---|
| Airport | Domodedovo International Airport (UUDD) |
| Time | Latitude | Longitude | Altitude | Speed | Heading |
|---|---|---|---|---|---|
| 2026-04-24 10:47 | 56.22099 | 43.78808 | 260 ft | 0 kts | 103° |
| 2026-04-24 11:11 | 56.22102 | 43.78782 | 260 ft | 2 kts | 98° |
| 2026-04-24 11:11 | 56.22104 | 43.78753 | 260 ft | 2 kts | 91° |
| 2026-04-24 11:11 | 56.22103 | 43.78723 | 260 ft | 2 kts | 69° |
| 2026-04-24 11:11 | 56.22094 | 43.78698 | 260 ft | 2 kts | 24° |
| 2026-04-24 11:12 | 56.22083 | 43.78691 | 260 ft | 1 kts | 13° |
| 2026-04-24 11:12 | 56.22082 | 43.78691 | 260 ft | 0 kts | 12° |
| 2026-04-24 11:12 | 56.22084 | 43.78691 | 260 ft | 2 kts | 12° |
| 2026-04-24 11:13 | 56.22119 | 43.78705 | 260 ft | 9 kts | 12° |
| 2026-04-24 11:13 | 56.22194 | 43.78735 | 260 ft | 11 kts | 11° |
| 2026-04-24 11:13 | 56.22262 | 43.78759 | 260 ft | 9 kts | 11° |
| 2026-04-24 11:13 | 56.22334 | 43.78784 | 260 ft | 12 kts | 11° |
| 2026-04-24 11:14 | 56.22409 | 43.78813 | 260 ft | 10 kts | 17° |
| 2026-04-24 11:14 | 56.22468 | 43.78863 | 260 ft | 9 kts | 28° |
| 2026-04-24 11:14 | 56.22549 | 43.78895 | 260 ft | 15 kts | 7° |
| 2026-04-24 11:14 | 56.22666 | 43.78932 | 260 ft | 20 kts | 11° |
| 2026-04-24 11:15 | 56.22810 | 43.78984 | 260 ft | 22 kts | 11° |
| 2026-04-24 11:15 | 56.22969 | 43.79043 | 260 ft | 24 kts | 12° |
| 2026-04-24 11:15 | 56.23140 | 43.79107 | 260 ft | 26 kts | 12° |
| 2026-04-24 11:15 | 56.23324 | 43.79178 | 261 ft | 28 kts | 12° |
| 2026-04-24 11:16 | 56.23519 | 43.79237 | 261 ft | 20 kts | 2° |
| 2026-04-24 11:16 | 56.23666 | 43.79249 | 261 ft | 22 kts | 2° |
| 2026-04-24 11:16 | 56.23815 | 43.79260 | 261 ft | 22 kts | 2° |
| 2026-04-24 11:16 | 56.23957 | 43.79274 | 261 ft | 16 kts | 2° |
| 2026-04-24 11:17 | 56.24058 | 43.79241 | 261 ft | 14 kts | 327° |
| 2026-04-24 11:17 | 56.24106 | 43.79102 | 262 ft | 13 kts | 290° |
| 2026-04-24 11:17 | 56.24102 | 43.78997 | 263 ft | 8 kts | 222° |
| 2026-04-24 11:17 | 56.24029 | 43.78966 | 262 ft | 20 kts | 190° |
| 2026-04-24 11:18 | 56.23669 | 43.78844 | 259 ft | 87 kts | 191° |
| 2026-04-24 11:18 | 56.22884 | 43.78559 | 261 ft | 140 kts | 189° |
| 2026-04-24 11:18 | 56.21848 | 43.78230 | 649 ft | 153 kts | 190° |
| 2026-04-24 11:18 | 56.20809 | 43.77815 | 1386 ft | 153 kts | 192° |
| 2026-04-24 11:19 | 56.19749 | 43.77199 | 1904 ft | 171 kts | 202° |
| 2026-04-24 11:19 | 56.18601 | 43.76224 | 2254 ft | 194 kts | 205° |
| 2026-04-24 11:19 | 56.17318 | 43.75072 | 2591 ft | 218 kts | 205° |
| 2026-04-24 11:19 | 56.15887 | 43.73795 | 3008 ft | 242 kts | 204° |
| 2026-04-24 11:20 | 56.14336 | 43.72424 | 3722 ft | 252 kts | 205° |
| 2026-04-24 11:20 | 56.12756 | 43.71040 | 4656 ft | 254 kts | 204° |
| 2026-04-24 11:20 | 56.11156 | 43.69657 | 5620 ft | 256 kts | 204° |
| 2026-04-24 11:20 | 56.09542 | 43.68280 | 6509 ft | 258 kts | 204° |
| 2026-04-24 11:21 | 56.07908 | 43.66900 | 7375 ft | 262 kts | 204° |
| 2026-04-24 11:21 | 56.06252 | 43.65504 | 8259 ft | 265 kts | 203° |
| 2026-04-24 11:21 | 56.04569 | 43.64087 | 9119 ft | 268 kts | 203° |
| 2026-04-24 11:21 | 56.02877 | 43.62601 | 9816 ft | 278 kts | 208° |
| 2026-04-24 11:22 | 56.01266 | 43.60418 | 10059 ft | 304 kts | 222° |
| 2026-04-24 11:22 | 55.99843 | 43.57492 | 10555 ft | 317 kts | 228° |
| 2026-04-24 11:22 | 55.98407 | 43.54452 | 11282 ft | 322 kts | 227° |
| 2026-04-24 11:22 | 55.96936 | 43.51410 | 12047 ft | 326 kts | 227° |
| 2026-04-24 11:23 | 55.95437 | 43.48345 | 12803 ft | 329 kts | 226° |
| 2026-04-24 11:23 | 55.93937 | 43.45292 | 13489 ft | 333 kts | 227° |
| 2026-04-24 11:23 | 55.92401 | 43.42173 | 14137 ft | 336 kts | 227° |
| 2026-04-24 11:23 | 55.90851 | 43.39024 | 14812 ft | 339 kts | 227° |
| 2026-04-24 11:24 | 55.89291 | 43.35848 | 15478 ft | 342 kts | 227° |
| 2026-04-24 11:24 | 55.87718 | 43.32645 | 16146 ft | 345 kts | 227° |
| 2026-04-24 11:24 | 55.86132 | 43.29421 | 16836 ft | 348 kts | 226° |
| 2026-04-24 11:24 | 55.84531 | 43.26171 | 17514 ft | 350 kts | 226° |
| 2026-04-24 11:25 | 55.82920 | 43.22904 | 18099 ft | 353 kts | 226° |
| 2026-04-24 11:25 | 55.81301 | 43.19606 | 18661 ft | 355 kts | 229° |
| 2026-04-24 11:25 | 55.79902 | 43.15953 | 19221 ft | 360 kts | 239° |
| 2026-04-24 11:25 | 55.78908 | 43.11846 | 19786 ft | 365 kts | 250° |
| 2026-04-24 11:26 | 55.78245 | 43.07482 | 20344 ft | 367 kts | 252° |
| 2026-04-24 11:26 | 55.77591 | 43.03073 | 20884 ft | 369 kts | 252° |
| 2026-04-24 11:26 | 55.76928 | 42.98657 | 21425 ft | 371 kts | 252° |
| 2026-04-24 11:26 | 55.76253 | 42.94221 | 21961 ft | 373 kts | 252° |
| 2026-04-24 11:27 | 55.75571 | 42.89771 | 22499 ft | 375 kts | 252° |
| 2026-04-24 11:27 | 55.74883 | 42.85291 | 23019 ft | 377 kts | 252° |
| 2026-04-24 11:27 | 55.74192 | 42.80788 | 23442 ft | 380 kts | 252° |
| 2026-04-24 11:27 | 55.73495 | 42.76248 | 23850 ft | 383 kts | 252° |
| 2026-04-24 11:28 | 55.72797 | 42.71721 | 24200 ft | 386 kts | 252° |
| 2026-04-24 11:28 | 55.72085 | 42.67106 | 24556 ft | 390 kts | 252° |
| 2026-04-24 11:28 | 55.71366 | 42.62452 | 24912 ft | 393 kts | 252° |
| 2026-04-24 11:28 | 55.70643 | 42.57758 | 25261 ft | 396 kts | 252° |
| 2026-04-24 11:29 | 55.69915 | 42.53033 | 25624 ft | 399 kts | 252° |
| 2026-04-24 11:29 | 55.69177 | 42.48273 | 25962 ft | 402 kts | 252° |
| 2026-04-24 11:29 | 55.68427 | 42.43479 | 26307 ft | 405 kts | 252° |
| 2026-04-24 11:29 | 55.67669 | 42.38661 | 26653 ft | 408 kts | 252° |
| 2026-04-24 11:30 | 55.66901 | 42.33801 | 26983 ft | 411 kts | 252° |
| 2026-04-24 11:30 | 55.66129 | 42.28914 | 27324 ft | 414 kts | 252° |
| 2026-04-24 11:30 | 55.65352 | 42.23980 | 27653 ft | 417 kts | 252° |
| 2026-04-24 11:30 | 55.64568 | 42.19025 | 27979 ft | 420 kts | 252° |
| 2026-04-24 11:31 | 55.63776 | 42.14034 | 28290 ft | 423 kts | 252° |
| 2026-04-24 11:31 | 55.62972 | 42.08996 | 28576 ft | 427 kts | 252° |
| 2026-04-24 11:31 | 55.62159 | 42.03921 | 28885 ft | 430 kts | 252° |
| 2026-04-24 11:31 | 55.61338 | 41.98815 | 29196 ft | 433 kts | 252° |
| 2026-04-24 11:32 | 55.60510 | 41.93674 | 29496 ft | 436 kts | 252° |
| 2026-04-24 11:32 | 55.59679 | 41.88514 | 29738 ft | 438 kts | 252° |
| 2026-04-24 11:32 | 55.58948 | 41.83262 | 29964 ft | 442 kts | 259° |
| 2026-04-24 11:32 | 55.58666 | 41.77833 | 30192 ft | 446 kts | 267° |
| 2026-04-24 11:33 | 55.58606 | 41.72411 | 30426 ft | 449 kts | 267° |
| 2026-04-24 11:33 | 55.58536 | 41.66811 | 30662 ft | 451 kts | 267° |
| 2026-04-24 11:33 | 55.58462 | 41.61348 | 30969 ft | 450 kts | 267° |
| 2026-04-24 11:33 | 55.58386 | 41.55815 | 31290 ft | 450 kts | 266° |
| 2026-04-24 11:34 | 55.58308 | 41.50284 | 31438 ft | 449 kts | 267° |
| 2026-04-24 11:34 | 55.58229 | 41.44852 | 31469 ft | 436 kts | 267° |
| 2026-04-24 11:34 | 55.58062 | 41.34265 | 31479 ft | 428 kts | 268° |
| 2026-04-24 11:35 | 55.57884 | 41.23758 | 31482 ft | 427 kts | 268° |
| 2026-04-24 11:35 | 55.57710 | 41.13276 | 31482 ft | 427 kts | 268° |
| 2026-04-24 11:36 | 55.57530 | 41.02851 | 31496 ft | 426 kts | 268° |
| 2026-04-24 11:36 | 55.57329 | 40.92385 | 31494 ft | 426 kts | 268° |
| 2026-04-24 11:37 | 55.57110 | 40.81926 | 31491 ft | 426 kts | 267° |
| 2026-04-24 11:37 | 55.56892 | 40.71477 | 31501 ft | 426 kts | 267° |
| 2026-04-24 11:38 | 55.56669 | 40.61022 | 31493 ft | 426 kts | 269° |
| 2026-04-24 11:38 | 55.56431 | 40.50560 | 31497 ft | 426 kts | 269° |
| 2026-04-24 11:39 | 55.56305 | 40.45351 | 31285 ft | 420 kts | 268° |
| 2026-04-24 11:39 | 55.56175 | 40.40242 | 31038 ft | 413 kts | 268° |
| 2026-04-24 11:39 | 55.56039 | 40.35210 | 30783 ft | 408 kts | 268° |
| 2026-04-24 11:39 | 55.55898 | 40.30234 | 30343 ft | 404 kts | 268° |
| 2026-04-24 11:40 | 55.55755 | 40.25295 | 29878 ft | 401 kts | 267° |
| 2026-04-24 11:40 | 55.55612 | 40.20383 | 29369 ft | 399 kts | 267° |
| 2026-04-24 11:40 | 55.55470 | 40.15527 | 28913 ft | 394 kts | 266° |
| 2026-04-24 11:40 | 55.55328 | 40.10729 | 28470 ft | 389 kts | 265° |
| 2026-04-24 11:41 | 55.55186 | 40.05992 | 28047 ft | 383 kts | 265° |
| 2026-04-24 11:41 | 55.55048 | 40.01326 | 27627 ft | 378 kts | 267° |
| 2026-04-24 11:41 | 55.55170 | 39.96702 | 27286 ft | 376 kts | 274° |
| 2026-04-24 11:41 | 55.55437 | 39.92092 | 27012 ft | 379 kts | 272° |
| 2026-04-24 11:42 | 55.55607 | 39.89034 | 26841 ft | 378 kts | 272° |
| 2026-04-24 11:42 | 55.55857 | 39.84424 | 26544 ft | 375 kts | 272° |
| 2026-04-24 11:42 | 55.56098 | 39.79847 | 26257 ft | 373 kts | 274° |
| 2026-04-24 11:42 | 55.56410 | 39.73806 | 25870 ft | 371 kts | 273° |
| 2026-04-24 11:43 | 55.56643 | 39.69278 | 25591 ft | 369 kts | 272° |
| 2026-04-24 11:43 | 55.56874 | 39.64772 | 25308 ft | 368 kts | 272° |
| 2026-04-24 11:43 | 55.57029 | 39.61736 | 25120 ft | 366 kts | 272° |
| 2026-04-24 11:43 | 55.57258 | 39.57266 | 24838 ft | 364 kts | 272° |
| 2026-04-24 11:44 | 55.57484 | 39.52823 | 24560 ft | 362 kts | 272° |
| 2026-04-24 11:44 | 55.57724 | 39.48398 | 24280 ft | 361 kts | 273° |
| 2026-04-24 11:44 | 55.57995 | 39.44064 | 24009 ft | 359 kts | 274° |
| 2026-04-24 11:44 | 55.58292 | 39.39689 | 23732 ft | 357 kts | 274° |
| 2026-04-24 11:45 | 55.58593 | 39.35344 | 23460 ft | 355 kts | 273° |
| 2026-04-24 11:45 | 55.58886 | 39.31016 | 23188 ft | 354 kts | 272° |
| 2026-04-24 11:45 | 55.59168 | 39.26714 | 22894 ft | 352 kts | 272° |
| 2026-04-24 11:45 | 55.59441 | 39.22425 | 22616 ft | 350 kts | 274° |
| 2026-04-24 11:46 | 55.59710 | 39.18154 | 22347 ft | 349 kts | 274° |
| 2026-04-24 11:46 | 55.59974 | 39.13903 | 22078 ft | 347 kts | 274° |
| 2026-04-24 11:46 | 55.60236 | 39.09665 | 21810 ft | 346 kts | 274° |
| 2026-04-24 11:46 | 55.60496 | 39.05444 | 21550 ft | 345 kts | 273° |
| 2026-04-24 11:47 | 55.60753 | 39.01232 | 21283 ft | 344 kts | 273° |
| 2026-04-24 11:47 | 55.61004 | 38.97028 | 21022 ft | 343 kts | 273° |
| 2026-04-24 11:47 | 55.61250 | 38.92902 | 20761 ft | 341 kts | 272° |
| 2026-04-24 11:47 | 55.61500 | 38.88737 | 20501 ft | 340 kts | 274° |
| 2026-04-24 11:48 | 55.61740 | 38.84584 | 20199 ft | 339 kts | 274° |
| 2026-04-24 11:48 | 55.61965 | 38.80442 | 19899 ft | 338 kts | 273° |
| 2026-04-24 11:48 | 55.62180 | 38.76314 | 19608 ft | 336 kts | 272° |
| 2026-04-24 11:48 | 55.62390 | 38.72202 | 19307 ft | 335 kts | 273° |
| 2026-04-24 11:49 | 55.62600 | 38.68107 | 18994 ft | 334 kts | 274° |
| 2026-04-24 11:49 | 55.62810 | 38.64026 | 18721 ft | 332 kts | 274° |
| 2026-04-24 11:49 | 55.63020 | 38.59970 | 18452 ft | 330 kts | 274° |
| 2026-04-24 11:49 | 55.63224 | 38.55939 | 18314 ft | 327 kts | 275° |
| 2026-04-24 11:50 | 55.63420 | 38.51939 | 18153 ft | 325 kts | 275° |
| 2026-04-24 11:50 | 55.63612 | 38.47958 | 17983 ft | 324 kts | 275° |
| 2026-04-24 11:50 | 55.63804 | 38.43990 | 17811 ft | 323 kts | 275° |
| 2026-04-24 11:50 | 55.63995 | 38.40032 | 17659 ft | 322 kts | 275° |
| 2026-04-24 11:51 | 55.64185 | 38.36097 | 17566 ft | 319 kts | 275° |
| 2026-04-24 11:51 | 55.64372 | 38.32230 | 17589 ft | 319 kts | 275° |
| 2026-04-24 11:51 | 55.64569 | 38.28314 | 17590 ft | 319 kts | 277° |
| 2026-04-24 11:51 | 55.65136 | 38.24535 | 17593 ft | 319 kts | 294° |
| 2026-04-24 11:52 | 55.66267 | 38.21171 | 17582 ft | 319 kts | 309° |
| 2026-04-24 11:52 | 55.67860 | 38.18472 | 17469 ft | 318 kts | 325° |
| 2026-04-24 11:52 | 55.69814 | 38.16641 | 17369 ft | 317 kts | 339° |
| 2026-04-24 11:52 | 55.71862 | 38.15185 | 17268 ft | 317 kts | 338° |
| 2026-04-24 11:53 | 55.73903 | 38.13709 | 17167 ft | 316 kts | 338° |
| 2026-04-24 11:53 | 55.75898 | 38.12092 | 17076 ft | 316 kts | 329° |
| 2026-04-24 11:53 | 55.77644 | 38.09754 | 16973 ft | 315 kts | 315° |
| 2026-04-24 11:53 | 55.79027 | 38.06762 | 16856 ft | 314 kts | 302° |
| 2026-04-24 11:54 | 55.79986 | 38.03295 | 16738 ft | 313 kts | 292° |
| 2026-04-24 11:54 | 55.80662 | 37.99631 | 16622 ft | 312 kts | 279° |
| 2026-04-24 11:54 | 55.80657 | 37.95786 | 16503 ft | 312 kts | 259° |
| 2026-04-24 11:54 | 55.79906 | 37.92181 | 16383 ft | 312 kts | 239° |
| 2026-04-24 11:55 | 55.78510 | 37.89245 | 16276 ft | 313 kts | 219° |
| 2026-04-24 11:55 | 55.76630 | 37.87331 | 16168 ft | 314 kts | 199° |
| 2026-04-24 11:55 | 55.74485 | 37.86672 | 16052 ft | 314 kts | 180° |
| 2026-04-24 11:55 | 55.72296 | 37.86697 | 15941 ft | 315 kts | 179° |
| 2026-04-24 11:56 | 55.70111 | 37.86731 | 15828 ft | 314 kts | 179° |
| 2026-04-24 11:56 | 55.67922 | 37.86763 | 15722 ft | 314 kts | 180° |
| 2026-04-24 11:56 | 55.65734 | 37.86792 | 15615 ft | 315 kts | 180° |
| 2026-04-24 11:56 | 55.63537 | 37.86821 | 15339 ft | 317 kts | 180° |
| 2026-04-24 11:57 | 55.61333 | 37.86868 | 14985 ft | 316 kts | 179° |
| 2026-04-24 11:57 | 55.59124 | 37.86929 | 14540 ft | 318 kts | 179° |
| 2026-04-24 11:57 | 55.57237 | 37.87036 | 14249 ft | 317 kts | 174° |
| 2026-04-24 11:57 | 55.55093 | 37.87876 | 13884 ft | 315 kts | 159° |
| 2026-04-24 11:58 | 55.53151 | 37.89560 | 13425 ft | 316 kts | 144° |
| 2026-04-24 11:58 | 55.51389 | 37.91866 | 13008 ft | 315 kts | 140° |
| 2026-04-24 11:58 | 55.49636 | 37.94191 | 12655 ft | 313 kts | 142° |
| 2026-04-24 11:58 | 55.47898 | 37.96470 | 12318 ft | 309 kts | 141° |
| 2026-04-24 11:59 | 55.46170 | 37.98707 | 12016 ft | 306 kts | 142° |
| 2026-04-24 11:59 | 55.44453 | 38.00919 | 11721 ft | 305 kts | 141° |
| 2026-04-24 11:59 | 55.42738 | 38.03125 | 11431 ft | 305 kts | 141° |
| 2026-04-24 11:59 | 55.41028 | 38.05326 | 11141 ft | 304 kts | 141° |
| 2026-04-24 12:00 | 55.39318 | 38.07528 | 10845 ft | 304 kts | 141° |
| 2026-04-24 12:00 | 55.37611 | 38.09727 | 10564 ft | 305 kts | 141° |
| 2026-04-24 12:00 | 55.35909 | 38.11911 | 10290 ft | 301 kts | 141° |
| 2026-04-24 12:00 | 55.34221 | 38.14071 | 10054 ft | 299 kts | 141° |
| 2026-04-24 12:01 | 55.32546 | 38.16214 | 9872 ft | 296 kts | 141° |
| 2026-04-24 12:01 | 55.30883 | 38.18346 | 9747 ft | 296 kts | 141° |
| 2026-04-24 12:01 | 55.29217 | 38.20483 | 9554 ft | 297 kts | 141° |
| 2026-04-24 12:01 | 55.27553 | 38.22612 | 9267 ft | 295 kts | 141° |
| 2026-04-24 12:02 | 55.25890 | 38.24737 | 8978 ft | 295 kts | 141° |
| 2026-04-24 12:02 | 55.24213 | 38.26834 | 8498 ft | 298 kts | 142° |
| 2026-04-24 12:02 | 55.22526 | 38.28873 | 8164 ft | 287 kts | 143° |
| 2026-04-24 12:02 | 55.20919 | 38.30782 | 8028 ft | 274 kts | 143° |
| 2026-04-24 12:03 | 55.19361 | 38.32635 | 7985 ft | 270 kts | 143° |
| 2026-04-24 12:03 | 55.17809 | 38.34490 | 7992 ft | 270 kts | 143° |
| 2026-04-24 12:03 | 55.16252 | 38.36342 | 7993 ft | 271 kts | 143° |
| 2026-04-24 12:03 | 55.14693 | 38.38193 | 7987 ft | 271 kts | 143° |
| 2026-04-24 12:04 | 55.13136 | 38.40041 | 7990 ft | 271 kts | 143° |
| 2026-04-24 12:04 | 55.11573 | 38.41897 | 7988 ft | 271 kts | 143° |
| 2026-04-24 12:04 | 55.10002 | 38.43715 | 7993 ft | 270 kts | 144° |
| 2026-04-24 12:04 | 55.08339 | 38.45240 | 7987 ft | 272 kts | 160° |
| 2026-04-24 12:05 | 55.06493 | 38.45725 | 7986 ft | 266 kts | 182° |
| 2026-04-24 12:05 | 55.04689 | 38.45133 | 7858 ft | 263 kts | 203° |
| 2026-04-24 12:05 | 55.03055 | 38.43716 | 7749 ft | 262 kts | 210° |
| 2026-04-24 12:05 | 55.01466 | 38.42248 | 7641 ft | 262 kts | 210° |
| 2026-04-24 12:06 | 54.99862 | 38.40753 | 7539 ft | 261 kts | 214° |
| 2026-04-24 12:06 | 54.98461 | 38.38791 | 7439 ft | 257 kts | 232° |
| 2026-04-24 12:06 | 54.97539 | 38.36217 | 7306 ft | 248 kts | 256° |
| 2026-04-24 12:06 | 54.97290 | 38.33326 | 7175 ft | 238 kts | 280° |
| 2026-04-24 12:07 | 54.97721 | 38.30624 | 7045 ft | 229 kts | 303° |
| 2026-04-24 12:07 | 54.98694 | 38.28504 | 6918 ft | 222 kts | 324° |
| 2026-04-24 12:07 | 54.99954 | 38.26982 | 6785 ft | 220 kts | 329° |
| 2026-04-24 12:07 | 55.01226 | 38.25496 | 6660 ft | 219 kts | 329° |
| 2026-04-24 12:08 | 55.02488 | 38.24016 | 6508 ft | 219 kts | 328° |
| 2026-04-24 12:08 | 55.03748 | 38.22535 | 6380 ft | 218 kts | 327° |
| 2026-04-24 12:08 | 55.05007 | 38.21050 | 6247 ft | 217 kts | 327° |
| 2026-04-24 12:08 | 55.06256 | 38.19575 | 6128 ft | 217 kts | 327° |
| 2026-04-24 12:09 | 55.07503 | 38.18103 | 6003 ft | 216 kts | 327° |
| 2026-04-24 12:09 | 55.08728 | 38.16655 | 5786 ft | 210 kts | 327° |
| 2026-04-24 12:09 | 55.09916 | 38.15250 | 5518 ft | 207 kts | 327° |
| 2026-04-24 12:09 | 55.11075 | 38.13880 | 5248 ft | 204 kts | 327° |
| 2026-04-24 12:10 | 55.12332 | 38.12701 | 4961 ft | 200 kts | 350° |
| 2026-04-24 12:10 | 55.13721 | 38.12620 | 4834 ft | 210 kts | 356° |
| 2026-04-24 12:10 | 55.15285 | 38.12450 | 4694 ft | 232 kts | 354° |
| 2026-04-24 12:11 | 55.18355 | 38.12072 | 4282 ft | 213 kts | 354° |
| 2026-04-24 12:11 | 55.19812 | 38.11891 | 4231 ft | 206 kts | 354° |
| 2026-04-24 12:11 | 55.21184 | 38.11552 | 4190 ft | 193 kts | 342° |
| 2026-04-24 12:11 | 55.22377 | 38.10620 | 4117 ft | 184 kts | 331° |
| 2026-04-24 12:12 | 55.23425 | 38.09499 | 4057 ft | 169 kts | 328° |
| 2026-04-24 12:12 | 55.24371 | 38.08408 | 3966 ft | 157 kts | 328° |
| 2026-04-24 12:12 | 55.25265 | 38.07357 | 3768 ft | 153 kts | 327° |
| 2026-04-24 12:12 | 55.26134 | 38.06328 | 3586 ft | 149 kts | 327° |
| 2026-04-24 12:13 | 55.26991 | 38.05309 | 3412 ft | 148 kts | 327° |
| 2026-04-24 12:13 | 55.27837 | 38.04302 | 3350 ft | 146 kts | 327° |
| 2026-04-24 12:13 | 55.28638 | 38.03347 | 3228 ft | 137 kts | 327° |
| 2026-04-24 12:13 | 55.29406 | 38.02432 | 3036 ft | 131 kts | 328° |
| 2026-04-24 12:14 | 55.30156 | 38.01536 | 2862 ft | 129 kts | 328° |
| 2026-04-24 12:14 | 55.30895 | 38.00654 | 2683 ft | 128 kts | 328° |
| 2026-04-24 12:14 | 55.31631 | 37.99776 | 2502 ft | 128 kts | 328° |
| 2026-04-24 12:14 | 55.32364 | 37.98899 | 2324 ft | 127 kts | 328° |
| 2026-04-24 12:15 | 55.33096 | 37.98024 | 2147 ft | 127 kts | 328° |
| 2026-04-24 12:15 | 55.33831 | 37.97145 | 1960 ft | 127 kts | 328° |
| 2026-04-24 12:15 | 55.34559 | 37.96274 | 1784 ft | 126 kts | 328° |
| 2026-04-24 12:15 | 55.35285 | 37.95404 | 1610 ft | 126 kts | 328° |
| 2026-04-24 12:16 | 55.36011 | 37.94534 | 1436 ft | 126 kts | 328° |
| 2026-04-24 12:16 | 55.36731 | 37.93633 | 1224 ft | 126 kts | 327° |
| 2026-04-24 12:16 | 55.37457 | 37.92763 | 1050 ft | 126 kts | 327° |
| 2026-04-24 12:16 | 55.38193 | 37.91884 | 847 ft | 128 kts | 330° |
| 2026-04-24 12:17 | 55.38927 | 37.91021 | 731 ft | 129 kts | 328° |
| 2026-04-24 12:17 | 55.39657 | 37.90149 | 568 ft | 127 kts | 327° |
| 2026-04-24 12:17 | 55.40218 | 37.89489 | 563 ft | 55 kts | 326° |
| 2026-04-24 12:17 | 55.40475 | 37.89184 | 567 ft | 40 kts | 326° |
| 2026-04-24 12:18 | 55.40684 | 37.88930 | 579 ft | 33 kts | 325° |
| 2026-04-24 12:18 | 55.40842 | 37.88785 | 576 ft | 19 kts | 342° |
| 2026-04-24 12:18 | 55.40979 | 37.88750 | 578 ft | 21 kts | 357° |
| 2026-04-24 12:18 | 55.41050 | 37.88832 | 578 ft | 14 kts | 97° |
| 2026-04-24 12:19 | 55.40981 | 37.88935 | 576 ft | 13 kts | 146° |
| 2026-04-24 12:19 | 55.40909 | 37.89019 | 576 ft | 12 kts | 145° |
| 2026-04-24 12:19 | 55.40839 | 37.89104 | 573 ft | 13 kts | 146° |
| 2026-04-24 12:19 | 55.40786 | 37.89221 | 574 ft | 12 kts | 110° |
| 2026-04-24 12:20 | 55.40790 | 37.89380 | 570 ft | 14 kts | 69° |
| 2026-04-24 12:20 | 55.40857 | 37.89531 | 572 ft | 17 kts | 42° |
| 2026-04-24 12:20 | 55.40934 | 37.89714 | 570 ft | 20 kts | 55° |
| 2026-04-24 12:20 | 55.40991 | 37.89858 | 569 ft | 10 kts | 47° |
| 2026-04-24 12:21 | 55.41051 | 37.89828 | 572 ft | 9 kts | 325° |
| 2026-04-24 12:21 | 55.41087 | 37.89795 | 573 ft | 4 kts | 355° |
| 2026-04-24 12:21 | 55.41106 | 37.89842 | 572 ft | 7 kts | 54° |
| 2026-04-24 12:21 | 55.41113 | 37.89858 | 571 ft | 0 kts | 54° |